Weather at Portland Airport

Public forecast

Using degrees Celsius for public forecast. Weather courtesy of forecast.io.

Closest aviation weather report (METAR) to Portland Airport

Closest report is Mount Gambier Airport, 47.3 nm (87.5 km) NW. Retrieved 2021/09/25 05:00 UTC (8 minutes ago):

YMTG 250500Z AUTO 21012KT 9999 // SCT032 SCT038 SCT056 12/05 Q1024

Closest aviation forecast (TAF) to Portland Airport

Closest forecast is Avalon Airport, 142.5 nm (263.9 km) E. Retrieved 2021-09-25 00:00 UTC (5 hours ago):

TAF YMAV 242325Z 2500/2600 26008KT 9999 FEW030 FM250100 20012KT 9999 -SHRA SCT030 BKN050 FM251200 25006KT 9999 NSW SCT030